createdAt,value
2018-06-22T00:02:23.020Z,9.70
2018-06-22T00:04:51.298Z,9.74
2018-06-22T00:07:19.583Z,9.91
2018-06-22T00:09:47.828Z,9.94
2018-06-22T00:12:16.194Z,9.83
2018-06-22T00:14:44.550Z,9.66
2018-06-22T00:17:12.970Z,9.78
2018-06-22T00:19:41.270Z,9.91
2018-06-22T00:22:09.563Z,10.10
2018-06-22T00:24:38.023Z,9.97
2018-06-22T00:27:06.329Z,9.63
2018-06-22T00:29:34.648Z,9.89
2018-06-22T00:32:03.070Z,10.07
2018-06-22T00:34:31.406Z,10.22
2018-06-22T00:36:59.799Z,9.99
2018-06-22T00:39:28.349Z,10.20
2018-06-22T00:41:58.610Z,9.73
2018-06-22T00:44:27.414Z,10.07
2018-06-22T00:46:55.683Z,10.16
2018-06-22T00:49:23.983Z,10.20
2018-06-22T00:51:52.469Z,10.11
2018-06-22T00:54:20.827Z,10.01
2018-06-22T00:56:49.087Z,10.04
2018-06-22T00:59:17.425Z,9.78
2018-06-22T01:01:45.823Z,9.81
2018-06-22T01:04:14.200Z,9.93
2018-06-22T01:06:42.543Z,9.95
2018-06-22T01:09:13.238Z,9.95
2018-06-22T01:11:41.500Z,9.85
2018-06-22T01:14:10.200Z,9.65
2018-06-22T01:16:38.733Z,9.94
2018-06-22T01:19:07.579Z,9.92
2018-06-22T01:21:35.972Z,9.77
2018-06-22T01:24:04.424Z,9.66
2018-06-22T01:26:32.682Z,9.57
2018-06-22T01:29:06.673Z,9.75
2018-06-22T01:31:43.773Z,9.49
2018-06-22T01:34:12.120Z,9.74
2018-06-22T01:36:40.396Z,9.77
2018-06-22T01:39:09.311Z,10.00
2018-06-22T01:41:37.600Z,10.04
2018-06-22T01:44:05.905Z,9.90
2018-06-22T01:46:34.830Z,10.05
2018-06-22T01:49:03.141Z,10.02
2018-06-22T01:51:31.439Z,10.03
2018-06-22T01:54:00.007Z,10.03
2018-06-22T01:56:28.297Z,9.91
2018-06-22T01:58:56.590Z,9.72
2018-06-22T02:01:24.844Z,9.69
2018-06-22T02:03:53.271Z,9.60
2018-06-22T02:06:21.635Z,9.67
2018-06-22T02:08:49.954Z,9.84
2018-06-22T02:11:18.242Z,9.79
2018-06-22T02:13:46.528Z,9.81
2018-06-22T02:16:14.839Z,9.63
2018-06-22T02:18:43.099Z,9.72
2018-06-22T02:21:11.393Z,9.70
2018-06-22T02:23:39.752Z,9.90
2018-06-22T02:26:08.055Z,9.75
2018-06-22T02:28:36.361Z,9.97
2018-06-22T02:31:04.747Z,9.71
2018-06-22T02:33:39.254Z,9.90
2018-06-22T02:36:07.654Z,9.96
2018-06-22T02:38:35.965Z,9.92
2018-06-22T02:41:06.049Z,10.06
2018-06-22T02:43:35.039Z,9.92
2018-06-22T02:46:04.018Z,10.08
2018-06-22T02:48:32.696Z,9.88
2018-06-22T02:51:00.996Z,9.84
2018-06-22T02:53:29.563Z,9.85
2018-06-22T02:55:58.156Z,9.78
2018-06-22T02:58:26.499Z,9.74
2018-06-22T03:00:56.794Z,9.70
2018-06-22T03:03:25.129Z,10.00
2018-06-22T03:05:53.415Z,9.96
2018-06-22T03:08:21.722Z,9.85
2018-06-22T03:10:50.078Z,9.84
2018-06-22T03:13:18.380Z,9.90
2018-06-22T03:15:46.747Z,9.59
2018-06-22T03:18:15.052Z,9.71
2018-06-22T03:20:43.317Z,9.62
2018-06-22T03:23:11.662Z,9.64
2018-06-22T03:25:39.979Z,9.56
2018-06-22T03:28:08.246Z,9.57
2018-06-22T03:30:36.560Z,9.77
2018-06-22T03:33:04.974Z,9.80
2018-06-22T03:35:33.440Z,9.73
2018-06-22T03:38:01.722Z,9.81
2018-06-22T03:40:30.024Z,10.06
2018-06-22T03:42:58.292Z,9.80
2018-06-22T03:45:26.721Z,9.55
2018-06-22T03:47:55.010Z,9.77
2018-06-22T03:50:23.354Z,9.94
2018-06-22T03:52:51.647Z,9.79
2018-06-22T03:55:20.065Z,9.60
2018-06-22T03:57:48.378Z,9.49
2018-06-22T04:00:16.776Z,9.53
2018-06-22T04:02:45.103Z,9.24
2018-06-22T04:05:13.602Z,9.45
2018-06-22T04:07:41.882Z,9.56
2018-06-22T04:10:10.202Z,9.45
2018-06-22T04:12:38.594Z,9.46
2018-06-22T04:15:06.954Z,9.47
2018-06-22T04:17:42.278Z,9.71
2018-06-22T04:20:10.603Z,9.65
2018-06-22T04:22:38.982Z,9.76
2018-06-22T04:25:07.265Z,9.86
2018-06-22T04:27:36.216Z,10.05
2018-06-22T04:30:04.776Z,9.97
2018-06-22T04:32:33.197Z,10.05
2018-06-22T04:35:01.506Z,9.60
2018-06-22T04:37:29.862Z,9.83
2018-06-22T04:39:58.185Z,9.99
2018-06-22T04:42:26.447Z,9.78
2018-06-22T04:44:54.920Z,9.68
2018-06-22T04:47:23.222Z,9.62
2018-06-22T04:49:51.702Z,9.75
2018-06-22T04:52:19.945Z,9.80
2018-06-22T04:54:48.270Z,9.80
2018-06-22T04:57:16.756Z,9.89
2018-06-22T04:59:45.243Z,9.77
2018-06-22T05:02:22.313Z,9.72
2018-06-22T05:04:51.353Z,9.99
2018-06-22T05:07:22.865Z,9.87
2018-06-22T05:09:51.359Z,9.80
2018-06-22T05:12:19.633Z,9.74
2018-06-22T05:14:47.941Z,9.77
2018-06-22T05:17:16.222Z,9.72
2018-06-22T05:19:44.536Z,9.88
2018-06-22T05:22:13.049Z,9.68
2018-06-22T05:24:41.337Z,9.59
2018-06-22T05:27:09.771Z,9.70
2018-06-22T05:29:39.554Z,9.71
2018-06-22T05:32:07.902Z,9.84
2018-06-22T05:34:36.847Z,9.86
2018-06-22T05:37:05.636Z,9.82
2018-06-22T05:39:34.020Z,9.65
2018-06-22T05:42:02.372Z,9.75
2018-06-22T05:44:30.682Z,9.72
2018-06-22T05:46:59.359Z,9.74
2018-06-22T05:49:32.547Z,9.58
2018-06-22T05:52:01.455Z,9.82
2018-06-22T05:54:30.414Z,9.70
2018-06-22T05:56:58.777Z,9.73
2018-06-22T05:59:27.268Z,9.82
2018-06-22T06:01:55.646Z,9.69
2018-06-22T06:04:24.045Z,9.52
2018-06-22T06:06:52.595Z,9.75
2018-06-22T06:09:20.935Z,9.87
2018-06-22T06:11:49.280Z,10.06
2018-06-22T06:14:17.694Z,9.74
2018-06-22T06:16:46.661Z,9.51
2018-06-22T06:19:15.055Z,9.87
2018-06-22T06:21:43.609Z,9.74
2018-06-22T06:24:11.879Z,9.72
2018-06-22T06:26:40.320Z,9.58
2018-06-22T06:29:08.619Z,9.57
2018-06-22T06:31:37.235Z,9.64
2018-06-22T06:34:05.572Z,9.65
2018-06-22T06:36:34.019Z,9.60
2018-06-22T06:39:02.426Z,9.79
2018-06-22T06:41:30.842Z,9.65
2018-06-22T06:43:59.150Z,9.64
2018-06-22T06:46:27.458Z,9.68
2018-06-22T06:48:55.727Z,9.49
2018-06-22T06:51:24.042Z,9.43
2018-06-22T06:53:52.322Z,9.38
2018-06-22T06:56:20.680Z,9.76
2018-06-22T06:58:49.050Z,9.55
2018-06-22T07:01:17.339Z,9.52
2018-06-22T07:03:45.923Z,9.47
2018-06-22T07:06:14.303Z,9.41
2018-06-22T07:08:42.707Z,9.34
2018-06-22T07:11:11.080Z,9.19
2018-06-22T07:13:39.430Z,9.07
2018-06-22T07:16:07.783Z,9.13
2018-06-22T07:18:36.257Z,9.20
2018-06-22T07:21:05.027Z,9.30
2018-06-22T07:23:33.431Z,9.43
2018-06-22T07:26:01.770Z,9.07
2018-06-22T07:28:30.102Z,9.12
2018-06-22T07:30:58.793Z,9.15
2018-06-22T07:33:27.072Z,9.03
2018-06-22T07:35:55.672Z,9.11
2018-06-22T07:38:24.170Z,9.26
2018-06-22T07:40:52.675Z,9.11
2018-06-22T07:43:21.127Z,9.34
2018-06-22T07:45:49.415Z,9.32
2018-06-22T07:48:17.846Z,9.26
2018-06-22T07:50:46.128Z,9.19
2018-06-22T07:53:14.491Z,9.52
2018-06-22T07:55:42.938Z,9.46
2018-06-22T07:58:11.219Z,9.39
2018-06-22T08:00:39.705Z,9.64
2018-06-22T08:03:08.043Z,9.73
2018-06-22T08:05:36.514Z,9.43
2018-06-22T08:08:04.982Z,9.60
2018-06-22T08:10:33.418Z,9.63
2018-06-22T08:13:01.715Z,9.39
2018-06-22T08:15:30.086Z,9.29
2018-06-22T08:17:58.391Z,9.31
2018-06-22T08:20:26.663Z,9.29
2018-06-22T08:22:55.051Z,9.71
2018-06-22T08:25:23.333Z,9.70
2018-06-22T08:27:51.677Z,9.98
2018-06-22T08:30:19.943Z,10.06
2018-06-22T08:32:48.263Z,10.24
2018-06-22T08:35:16.552Z,10.63
2018-06-22T08:37:44.902Z,10.53
2018-06-22T08:40:13.142Z,10.69
2018-06-22T08:42:41.415Z,10.45
2018-06-22T08:45:09.806Z,10.46
2018-06-22T08:47:38.102Z,10.35
2018-06-22T08:50:06.355Z,10.23
2018-06-22T08:52:34.658Z,10.19
2018-06-22T08:55:02.918Z,10.04
2018-06-22T08:57:31.245Z,10.15
2018-06-22T08:59:59.537Z,10.17
2018-06-22T09:02:27.850Z,10.22
2018-06-22T09:04:56.287Z,10.31
2018-06-22T09:07:24.594Z,10.52
2018-06-22T09:09:52.851Z,10.45
2018-06-22T09:12:21.269Z,10.40
2018-06-22T09:14:50.194Z,10.60
2018-06-22T09:17:18.780Z,10.33
2018-06-22T09:19:47.114Z,10.43
2018-06-22T09:22:15.416Z,10.24
2018-06-22T09:24:43.680Z,10.57
2018-06-22T09:27:12.167Z,10.73
2018-06-22T09:29:40.506Z,10.72
2018-06-22T09:32:09.487Z,10.65
2018-06-22T09:34:37.875Z,10.78
2018-06-22T09:37:06.263Z,11.04
2018-06-22T09:39:34.571Z,11.07
2018-06-22T09:42:02.893Z,10.91
2018-06-22T09:44:36.293Z,10.80
2018-06-22T09:47:04.842Z,10.71
2018-06-22T09:49:33.407Z,10.53
2018-06-22T09:52:01.872Z,10.50
2018-06-22T09:54:30.218Z,10.75
2018-06-22T09:56:59.362Z,10.97
2018-06-22T09:59:27.638Z,11.10
2018-06-22T10:01:56.296Z,11.19
2018-06-22T10:04:37.536Z,11.50
2018-06-22T10:07:06.047Z,11.35
2018-06-22T10:09:34.353Z,11.62
2018-06-22T10:12:02.679Z,11.21
2018-06-22T10:14:31.265Z,11.09
2018-06-22T10:16:59.630Z,11.02
2018-06-22T10:19:28.019Z,11.02
2018-06-22T10:21:56.964Z,11.12
2018-06-22T10:24:25.606Z,11.78
2018-06-22T10:26:53.953Z,11.90
2018-06-22T10:29:22.231Z,12.01
2018-06-22T10:31:50.568Z,12.14
2018-06-22T10:34:19.420Z,12.18
2018-06-22T10:36:47.778Z,12.08
2018-06-22T10:39:16.168Z,11.73
2018-06-22T10:41:44.513Z,11.78
2018-06-22T10:44:13.069Z,11.91
2018-06-22T10:46:41.630Z,11.99
2018-06-22T10:49:10.557Z,12.22
2018-06-22T10:51:38.930Z,12.37
2018-06-22T10:54:07.198Z,12.16
2018-06-22T10:56:35.450Z,12.53
2018-06-22T10:59:03.779Z,12.13
2018-06-22T11:01:32.801Z,12.19
2018-06-22T11:04:01.227Z,12.09
2018-06-22T11:06:29.587Z,12.00
2018-06-22T11:08:57.891Z,12.22
2018-06-22T11:11:26.140Z,12.07
2018-06-22T11:13:54.449Z,11.90
2018-06-22T11:16:23.072Z,12.01
2018-06-22T11:18:51.322Z,12.37
2018-06-22T11:21:19.716Z,12.67
2018-06-22T11:23:48.005Z,13.00
2018-06-22T11:26:16.293Z,13.07
2018-06-22T11:28:44.603Z,13.25
2018-06-22T11:31:12.888Z,13.44
2018-06-22T11:33:41.229Z,13.69
2018-06-22T11:36:09.542Z,13.54
2018-06-22T11:38:37.873Z,13.64
2018-06-22T11:41:06.174Z,13.61
2018-06-22T11:43:34.448Z,13.35
2018-06-22T11:46:02.725Z,13.49
2018-06-22T11:48:30.998Z,13.46
2018-06-22T11:50:59.366Z,13.28
2018-06-22T11:53:27.674Z,13.10
2018-06-22T11:55:55.985Z,12.95
2018-06-22T11:58:24.267Z,12.95
2018-06-22T12:00:52.613Z,13.32
2018-06-22T12:03:21.850Z,13.15
2018-06-22T12:05:50.169Z,13.25
2018-06-22T12:08:18.459Z,13.38
2018-06-22T12:10:46.757Z,13.46
2018-06-22T12:13:15.195Z,13.63
2018-06-22T12:15:43.502Z,13.94
2018-06-22T12:18:11.842Z,14.15
2018-06-22T12:20:40.196Z,14.79
2018-06-22T12:23:08.459Z,14.20
2018-06-22T12:25:36.762Z,14.02
2018-06-22T12:28:05.363Z,13.90
2018-06-22T12:30:33.919Z,14.20
2018-06-22T12:33:02.385Z,13.75
2018-06-22T12:35:30.867Z,13.96
2018-06-22T12:37:59.287Z,13.88
2018-06-22T12:40:27.679Z,13.96
2018-06-22T12:42:56.179Z,13.91
2018-06-22T12:45:24.690Z,14.20
2018-06-22T12:47:52.999Z,14.55
2018-06-22T12:50:21.543Z,14.34
2018-06-22T12:52:49.814Z,13.99
2018-06-22T12:55:18.358Z,14.08
2018-06-22T12:57:46.635Z,13.97
2018-06-22T13:00:15.030Z,13.54
2018-06-22T13:02:43.355Z,13.36
2018-06-22T13:05:11.789Z,13.35
2018-06-22T13:07:40.216Z,13.68
2018-06-22T13:10:08.502Z,13.65
2018-06-22T13:12:36.794Z,13.42
2018-06-22T13:15:05.442Z,13.47
2018-06-22T13:17:33.751Z,14.15
2018-06-22T13:20:02.031Z,14.20
2018-06-22T13:22:30.347Z,14.03
2018-06-22T13:24:58.586Z,14.10
2018-06-22T13:27:26.868Z,14.12
2018-06-22T13:29:55.199Z,14.08
2018-06-22T13:32:23.590Z,14.10
2018-06-22T13:34:51.898Z,14.31
2018-06-22T13:37:20.267Z,13.68
2018-06-22T13:39:48.615Z,13.84
2018-06-22T13:42:17.014Z,13.93
2018-06-22T13:44:45.389Z,14.02
2018-06-22T13:47:14.321Z,14.02
2018-06-22T13:49:42.612Z,13.94
2018-06-22T13:52:10.923Z,14.45
2018-06-22T13:54:39.543Z,14.85
2018-06-22T13:57:07.935Z,15.04
2018-06-22T13:59:36.131Z,14.91
2018-06-22T14:02:04.442Z,15.02
2018-06-22T14:04:38.000Z,14.83
2018-06-22T14:07:07.302Z,14.62
2018-06-22T14:09:35.782Z,14.48
2018-06-22T14:12:04.134Z,14.51
2018-06-22T14:14:32.414Z,14.48
2018-06-22T14:17:00.758Z,14.36
2018-06-22T14:19:29.098Z,14.27
2018-06-22T14:21:57.440Z,14.34
2018-06-22T14:24:26.044Z,14.42
2018-06-22T14:26:54.339Z,14.46
2018-06-22T14:29:22.634Z,14.32
2018-06-22T14:31:50.977Z,14.29
2018-06-22T14:34:19.688Z,14.33
2018-06-22T14:36:48.013Z,14.42
2018-06-22T14:39:16.290Z,14.29
2018-06-22T14:41:44.675Z,14.64
2018-06-22T14:44:13.030Z,14.49
2018-06-22T14:46:41.379Z,14.82
2018-06-22T14:49:09.683Z,15.10
2018-06-22T14:51:37.980Z,15.15
2018-06-22T14:54:11.753Z,14.90
2018-06-22T14:56:45.502Z,15.20
2018-06-22T14:59:19.236Z,15.34
2018-06-22T15:01:52.959Z,15.11
2018-06-22T15:04:26.638Z,15.81
2018-06-22T15:07:00.232Z,15.37
2018-06-22T15:09:28.527Z,15.49
2018-06-22T15:11:56.870Z,15.39
2018-06-22T15:14:25.135Z,14.90
2018-06-22T15:16:54.025Z,14.65
2018-06-22T15:19:22.394Z,14.92
2018-06-22T15:21:50.743Z,14.67
2018-06-22T15:24:19.318Z,14.74
2018-06-22T15:26:47.610Z,14.85
2018-06-22T15:29:15.907Z,14.76
2018-06-22T15:31:44.265Z,14.85
2018-06-22T15:34:18.294Z,14.99
2018-06-22T15:36:52.004Z,15.35
2018-06-22T15:39:25.574Z,14.97
2018-06-22T15:41:59.108Z,14.98
2018-06-22T15:44:32.733Z,14.79
2018-06-22T15:47:06.563Z,14.58
2018-06-22T15:49:40.225Z,14.70
2018-06-22T15:52:13.751Z,14.83
2018-06-22T15:54:47.531Z,14.79
2018-06-22T15:57:15.917Z,14.98
2018-06-22T15:59:44.162Z,14.74
2018-06-22T16:02:17.806Z,14.61
2018-06-22T16:04:46.208Z,14.68
2018-06-22T16:07:14.514Z,14.65
2018-06-22T16:09:48.226Z,14.50
2018-06-22T16:12:21.991Z,14.37
2018-06-22T16:14:55.743Z,14.25
2018-06-22T16:17:29.475Z,14.07
2018-06-22T16:20:02.982Z,14.19
2018-06-22T16:22:36.540Z,14.47
2018-06-22T16:25:10.192Z,14.20
2018-06-22T16:27:41.549Z,14.31
2018-06-22T16:30:10.503Z,14.34
2018-06-22T16:32:39.454Z,14.23
2018-06-22T16:35:07.814Z,14.24
2018-06-22T16:37:36.071Z,14.19
2018-06-22T16:40:04.627Z,14.07
2018-06-22T16:42:32.869Z,13.84
2018-06-22T16:45:01.195Z,13.14
2018-06-22T16:47:29.507Z,12.42
2018-06-22T16:49:57.961Z,12.38
2018-06-22T16:52:26.275Z,12.42
2018-06-22T16:54:54.719Z,12.56
2018-06-22T16:57:23.030Z,12.86
2018-06-22T16:59:51.427Z,13.04
2018-06-22T17:02:19.706Z,13.05
2018-06-22T17:04:48.046Z,13.41
2018-06-22T17:07:21.655Z,13.37
2018-06-22T17:09:55.700Z,13.53
2018-06-22T17:12:29.394Z,13.58
2018-06-22T17:15:03.339Z,13.36
2018-06-22T17:17:36.957Z,13.45
2018-06-22T17:20:05.250Z,13.29
2018-06-22T17:22:33.531Z,13.29
2018-06-22T17:25:01.855Z,13.63
2018-06-22T17:27:30.174Z,13.73
2018-06-22T17:29:58.463Z,13.68
2018-06-22T17:32:26.719Z,13.95
2018-06-22T17:34:55.276Z,14.07
2018-06-22T17:37:23.533Z,13.74
2018-06-22T17:39:51.838Z,13.71
2018-06-22T17:42:20.110Z,13.62
2018-06-22T17:44:48.586Z,13.72
2018-06-22T17:47:16.879Z,13.79
2018-06-22T17:49:45.283Z,13.72
2018-06-22T17:52:13.651Z,13.72
2018-06-22T17:54:42.086Z,13.54
2018-06-22T17:57:10.414Z,13.51
2018-06-22T17:59:44.290Z,13.39
2018-06-22T18:02:18.098Z,13.25
2018-06-22T18:04:50.625Z,13.13
2018-06-22T18:07:24.109Z,13.21
2018-06-22T18:09:57.823Z,13.30
2018-06-22T18:12:31.629Z,13.15
2018-06-22T18:14:59.894Z,13.14
2018-06-22T18:17:28.218Z,12.98
2018-06-22T18:19:56.523Z,13.13
2018-06-22T18:22:25.273Z,13.05
2018-06-22T18:24:53.600Z,13.08
2018-06-22T18:27:22.483Z,13.19
2018-06-22T18:29:50.950Z,13.32
2018-06-22T18:32:19.378Z,13.48
2018-06-22T18:34:48.262Z,13.56
2018-06-22T18:37:16.692Z,13.72
2018-06-22T18:39:45.039Z,13.68
2018-06-22T18:42:13.291Z,13.57
2018-06-22T18:44:41.687Z,13.57
2018-06-22T18:47:10.255Z,13.53
2018-06-22T18:49:38.578Z,13.52
2018-06-22T18:52:12.394Z,13.24
2018-06-22T18:54:46.022Z,13.06
2018-06-22T18:58:17.768Z,13.13
2018-06-22T19:00:51.338Z,12.95
2018-06-22T19:03:25.066Z,12.85
2018-06-22T19:05:53.586Z,12.61
2018-06-22T19:08:21.890Z,12.57
2018-06-22T19:10:50.406Z,12.51
2018-06-22T19:13:18.807Z,12.42
2018-06-22T19:15:47.164Z,12.14
2018-06-22T19:18:15.428Z,12.26
2018-06-22T19:20:43.797Z,12.16
2018-06-22T19:23:12.063Z,12.21
2018-06-22T19:25:40.706Z,12.13
2018-06-22T19:28:08.988Z,12.18
2018-06-22T19:30:37.438Z,12.29
2018-06-22T19:33:05.871Z,12.24
2018-06-22T19:35:34.378Z,12.27
2018-06-22T19:38:02.717Z,12.30
2018-06-22T19:40:31.030Z,12.30
2018-06-22T19:42:59.411Z,12.33
2018-06-22T19:45:33.131Z,12.49
2018-06-22T19:48:06.930Z,12.52
2018-06-22T19:50:40.359Z,12.44
2018-06-22T19:53:13.894Z,12.40
2018-06-22T19:55:42.255Z,12.27
2018-06-22T19:58:10.754Z,12.21
2018-06-22T20:00:39.169Z,12.18
2018-06-22T20:03:07.526Z,12.13
2018-06-22T20:05:35.900Z,11.96
2018-06-22T20:08:04.275Z,11.94
2018-06-22T20:10:37.631Z,11.94
2018-06-22T20:13:06.183Z,12.11
2018-06-22T20:15:34.565Z,11.79
2018-06-22T20:18:02.894Z,11.86
2018-06-22T20:20:31.419Z,11.84
2018-06-22T20:22:59.769Z,11.78
2018-06-22T20:25:33.434Z,11.68
2018-06-22T20:28:03.063Z,11.59
2018-06-22T20:30:31.951Z,11.66
2018-06-22T20:33:00.454Z,11.66
2018-06-22T20:35:34.018Z,11.55
2018-06-22T20:38:07.519Z,11.47
2018-06-22T20:40:41.164Z,11.49
2018-06-22T20:43:14.713Z,11.33
2018-06-22T20:45:59.171Z,11.26
2018-06-22T20:48:32.731Z,11.33
2018-06-22T20:51:01.366Z,11.26
2018-06-22T20:53:29.679Z,11.28
2018-06-22T20:55:59.693Z,11.18
2018-06-22T20:58:28.149Z,11.15
2018-06-22T21:00:56.557Z,11.02
2018-06-22T21:03:24.918Z,11.14
2018-06-22T21:05:53.256Z,11.15
2018-06-22T21:08:21.933Z,11.23
2018-06-22T21:10:50.207Z,11.28
2018-06-22T21:13:18.771Z,11.35
2018-06-22T21:15:47.295Z,11.32
2018-06-22T21:18:15.543Z,11.46
2018-06-22T21:20:49.306Z,11.35
2018-06-22T21:23:17.727Z,11.51
2018-06-22T21:25:46.023Z,11.52
2018-06-22T21:28:19.786Z,11.48
2018-06-22T21:30:53.315Z,11.58
2018-06-22T21:33:26.924Z,11.44
2018-06-22T21:36:58.426Z,11.37
2018-06-22T21:39:26.861Z,11.50
2018-06-22T21:41:55.242Z,11.36
2018-06-22T21:44:23.530Z,11.45
2018-06-22T21:46:51.810Z,11.31
2018-06-22T21:49:20.078Z,11.39
2018-06-22T21:51:48.334Z,11.41
2018-06-22T21:54:16.652Z,11.24
2018-06-22T21:56:45.059Z,11.25
2018-06-22T21:59:13.362Z,11.19
2018-06-22T22:01:42.038Z,11.13
2018-06-22T22:04:10.354Z,10.87
2018-06-22T22:06:38.615Z,10.95
2018-06-22T22:09:08.480Z,10.91
2018-06-22T22:11:42.185Z,10.68
2018-06-22T22:14:10.494Z,10.49
2018-06-22T22:16:38.741Z,10.46
2018-06-22T22:19:07.022Z,10.39
2018-06-22T22:21:36.162Z,10.45
2018-06-22T22:24:04.462Z,10.29
2018-06-22T22:26:32.732Z,10.34
2018-06-22T22:29:01.035Z,10.49
2018-06-22T22:31:29.310Z,10.21
2018-06-22T22:33:57.590Z,10.12
2018-06-22T22:36:25.990Z,10.07
2018-06-22T22:38:54.306Z,9.94
2018-06-22T22:41:22.887Z,9.91
2018-06-22T22:43:51.294Z,9.88
2018-06-22T22:46:19.536Z,9.78
2018-06-22T22:48:47.847Z,9.70
2018-06-22T22:51:16.151Z,9.76
2018-06-22T22:53:44.444Z,9.84
2018-06-22T22:56:12.766Z,9.84
2018-06-22T22:58:45.203Z,9.88
2018-06-22T23:01:13.527Z,9.95
2018-06-22T23:03:41.934Z,9.95
2018-06-22T23:06:10.319Z,9.91
2018-06-22T23:08:38.728Z,9.83
2018-06-22T23:11:07.060Z,9.98
2018-06-22T23:13:35.441Z,10.14
2018-06-22T23:16:03.819Z,10.30
2018-06-22T23:18:32.134Z,10.32
2018-06-22T23:21:00.442Z,10.24
2018-06-22T23:23:34.523Z,10.17
2018-06-22T23:26:03.407Z,10.35
2018-06-22T23:28:31.978Z,10.29
2018-06-22T23:31:02.795Z,10.35
2018-06-22T23:33:31.819Z,10.42
2018-06-22T23:36:01.568Z,10.46
2018-06-22T23:38:30.406Z,10.41
2018-06-22T23:40:58.687Z,10.41
2018-06-22T23:43:27.376Z,10.55
2018-06-22T23:45:55.687Z,10.64
2018-06-22T23:48:23.977Z,10.75
2018-06-22T23:50:52.746Z,10.73
2018-06-22T23:53:21.139Z,10.66
2018-06-22T23:55:49.459Z,10.58
2018-06-22T23:58:17.759Z,10.70
